sensor_id;sensor_type;location;lat;lon;timestamp;temperature;humidity
13796;SHT30;40911;51.552;9.874;2022-07-29T00:03:17;18.80;59.44
13796;SHT30;40911;51.552;9.874;2022-07-29T00:05:40;18.91;60.08
13796;SHT30;40911;51.552;9.874;2022-07-29T00:08:02;18.72;60.21
13796;SHT30;40911;51.552;9.874;2022-07-29T00:10:23;18.79;60.29
13796;SHT30;40911;51.552;9.874;2022-07-29T00:12:45;18.70;60.60
13796;SHT30;40911;51.552;9.874;2022-07-29T00:15:08;18.59;60.84
13796;SHT30;40911;51.552;9.874;2022-07-29T00:17:30;18.42;61.26
13796;SHT30;40911;51.552;9.874;2022-07-29T00:19:52;18.49;61.58
13796;SHT30;40911;51.552;9.874;2022-07-29T00:22:14;18.30;62.50
13796;SHT30;40911;51.552;9.874;2022-07-29T00:24:36;18.36;61.49
13796;SHT30;40911;51.552;9.874;2022-07-29T00:26:57;18.57;60.67
13796;SHT30;40911;51.552;9.874;2022-07-29T00:29:19;18.35;61.79
13796;SHT30;40911;51.552;9.874;2022-07-29T00:31:41;18.21;61.90
13796;SHT30;40911;51.552;9.874;2022-07-29T00:34:02;18.26;62.19
13796;SHT30;40911;51.552;9.874;2022-07-29T00:36:25;18.36;61.92
13796;SHT30;40911;51.552;9.874;2022-07-29T00:38:46;18.32;62.41
13796;SHT30;40911;51.552;9.874;2022-07-29T00:41:08;18.41;62.05
13796;SHT30;40911;51.552;9.874;2022-07-29T00:43:30;18.19;62.47
13796;SHT30;40911;51.552;9.874;2022-07-29T00:45:51;18.08;62.67
13796;SHT30;40911;51.552;9.874;2022-07-29T00:48:13;18.28;61.89
13796;SHT30;40911;51.552;9.874;2022-07-29T00:50:35;18.24;62.36
13796;SHT30;40911;51.552;9.874;2022-07-29T00:52:59;18.36;61.67
13796;SHT30;40911;51.552;9.874;2022-07-29T00:55:21;18.26;62.26
13796;SHT30;40911;51.552;9.874;2022-07-29T00:57:43;18.26;62.01
13796;SHT30;40911;51.552;9.874;2022-07-29T01:00:08;18.38;61.59
13796;SHT30;40911;51.552;9.874;2022-07-29T01:02:30;18.48;61.34
13796;SHT30;40911;51.552;9.874;2022-07-29T01:04:53;18.42;61.13
13796;SHT30;40911;51.552;9.874;2022-07-29T01:07:15;18.30;61.11
13796;SHT30;40911;51.552;9.874;2022-07-29T01:09:39;18.41;61.16
13796;SHT30;40911;51.552;9.874;2022-07-29T01:12:03;18.41;61.50
13796;SHT30;40911;51.552;9.874;2022-07-29T01:14:26;18.28;61.85
13796;SHT30;40911;51.552;9.874;2022-07-29T01:16:51;18.25;61.97
13796;SHT30;40911;51.552;9.874;2022-07-29T01:19:28;18.36;61.93
13796;SHT30;40911;51.552;9.874;2022-07-29T01:21:57;18.36;62.18
13796;SHT30;40911;51.552;9.874;2022-07-29T01:24:48;18.21;63.18
13796;SHT30;40911;51.552;9.874;2022-07-29T01:27:31;18.25;62.93
13796;SHT30;40911;51.552;9.874;2022-07-29T01:29:58;18.19;63.10
13796;SHT30;40911;51.552;9.874;2022-07-29T01:32:26;18.17;62.93
13796;SHT30;40911;51.552;9.874;2022-07-29T01:34:51;18.25;62.99
13796;SHT30;40911;51.552;9.874;2022-07-29T01:37:18;18.28;62.88
13796;SHT30;40911;51.552;9.874;2022-07-29T01:39:41;18.14;64.24
13796;SHT30;40911;51.552;9.874;2022-07-29T01:42:10;18.21;63.25
13796;SHT30;40911;51.552;9.874;2022-07-29T01:44:36;18.21;63.00
13796;SHT30;40911;51.552;9.874;2022-07-29T01:47:05;18.00;64.45
13796;SHT30;40911;51.552;9.874;2022-07-29T01:49:35;18.12;63.76
13796;SHT30;40911;51.552;9.874;2022-07-29T01:52:00;18.05;63.87
13796;SHT30;40911;51.552;9.874;2022-07-29T01:54:28;17.86;64.58
13796;SHT30;40911;51.552;9.874;2022-07-29T01:56:51;17.91;64.15
13796;SHT30;40911;51.552;9.874;2022-07-29T01:59:16;17.84;65.39
13796;SHT30;40911;51.552;9.874;2022-07-29T02:01:40;17.74;64.98
13796;SHT30;40911;51.552;9.874;2022-07-29T02:04:07;17.86;64.72
13796;SHT30;40911;51.552;9.874;2022-07-29T02:06:32;17.89;64.35
13796;SHT30;40911;51.552;9.874;2022-07-29T02:08:56;17.76;64.99
13796;SHT30;40911;51.552;9.874;2022-07-29T02:11:19;17.77;64.23
13796;SHT30;40911;51.552;9.874;2022-07-29T02:13:42;17.66;65.52
13796;SHT30;40911;51.552;9.874;2022-07-29T02:16:06;17.73;65.04
13796;SHT30;40911;51.552;9.874;2022-07-29T02:18:30;17.70;65.06
13796;SHT30;40911;51.552;9.874;2022-07-29T02:20:55;17.71;64.58
13796;SHT30;40911;51.552;9.874;2022-07-29T02:23:19;17.70;65.44
13796;SHT30;40911;51.552;9.874;2022-07-29T02:25:42;17.65;65.29
13796;SHT30;40911;51.552;9.874;2022-07-29T02:28:05;17.70;65.51
13796;SHT30;40911;51.552;9.874;2022-07-29T02:30:29;17.54;65.58
13796;SHT30;40911;51.552;9.874;2022-07-29T02:32:51;17.65;65.90
13796;SHT30;40911;51.552;9.874;2022-07-29T02:35:15;17.49;64.74
13796;SHT30;40911;51.552;9.874;2022-07-29T02:37:40;17.56;64.50
13796;SHT30;40911;51.552;9.874;2022-07-29T02:40:03;17.57;65.14
13796;SHT30;40911;51.552;9.874;2022-07-29T02:42:27;17.46;65.66
13796;SHT30;40911;51.552;9.874;2022-07-29T02:44:50;17.54;64.42
13796;SHT30;40911;51.552;9.874;2022-07-29T02:47:18;17.52;65.06
13796;SHT30;40911;51.552;9.874;2022-07-29T02:49:45;17.50;65.31
13796;SHT30;40911;51.552;9.874;2022-07-29T02:52:12;17.50;64.80
13796;SHT30;40911;51.552;9.874;2022-07-29T02:54:39;17.50;64.51
13796;SHT30;40911;51.552;9.874;2022-07-29T02:57:08;17.50;65.67
13796;SHT30;40911;51.552;9.874;2022-07-29T02:59:31;17.49;64.34
13796;SHT30;40911;51.552;9.874;2022-07-29T03:01:57;17.42;64.50
13796;SHT30;40911;51.552;9.874;2022-07-29T03:04:22;17.42;64.88
13796;SHT30;40911;51.552;9.874;2022-07-29T03:06:46;17.42;65.99
13796;SHT30;40911;51.552;9.874;2022-07-29T03:09:10;17.32;66.25
13796;SHT30;40911;51.552;9.874;2022-07-29T03:11:34;17.29;65.96
13796;SHT30;40911;51.552;9.874;2022-07-29T03:13:56;17.40;65.66
13796;SHT30;40911;51.552;9.874;2022-07-29T03:16:19;17.39;64.68
13796;SHT30;40911;51.552;9.874;2022-07-29T03:18:41;17.10;67.03
13796;SHT30;40911;51.552;9.874;2022-07-29T03:21:03;17.32;66.14
13796;SHT30;40911;51.552;9.874;2022-07-29T03:23:25;17.33;65.85
13796;SHT30;40911;51.552;9.874;2022-07-29T03:25:48;17.14;65.87
13796;SHT30;40911;51.552;9.874;2022-07-29T03:28:11;17.26;66.04
13796;SHT30;40911;51.552;9.874;2022-07-29T03:30:33;17.14;66.96
13796;SHT30;40911;51.552;9.874;2022-07-29T03:32:55;17.15;66.37
13796;SHT30;40911;51.552;9.874;2022-07-29T03:35:16;17.15;65.74
13796;SHT30;40911;51.552;9.874;2022-07-29T03:37:38;17.10;66.22
13796;SHT30;40911;51.552;9.874;2022-07-29T03:40:00;17.16;66.59
13796;SHT30;40911;51.552;9.874;2022-07-29T03:42:25;17.32;65.21
13796;SHT30;40911;51.552;9.874;2022-07-29T03:44:50;17.11;65.83
13796;SHT30;40911;51.552;9.874;2022-07-29T03:47:14;17.14;65.89
13796;SHT30;40911;51.552;9.874;2022-07-29T03:49:39;17.08;66.18
13796;SHT30;40911;51.552;9.874;2022-07-29T03:52:02;17.18;66.01
13796;SHT30;40911;51.552;9.874;2022-07-29T03:54:24;17.14;65.94
13796;SHT30;40911;51.552;9.874;2022-07-29T03:56:46;17.05;67.06
13796;SHT30;40911;51.552;9.874;2022-07-29T03:59:10;16.91;66.56
13796;SHT30;40911;51.552;9.874;2022-07-29T04:01:34;17.08;66.07
13796;SHT30;40911;51.552;9.874;2022-07-29T04:03:56;16.98;65.88
13796;SHT30;40911;51.552;9.874;2022-07-29T04:06:18;16.95;66.65
13796;SHT30;40911;51.552;9.874;2022-07-29T04:08:39;16.97;66.29
13796;SHT30;40911;51.552;9.874;2022-07-29T04:11:02;16.85;67.44
13796;SHT30;40911;51.552;9.874;2022-07-29T04:13:24;16.91;67.37
13796;SHT30;40911;51.552;9.874;2022-07-29T04:15:45;17.03;66.60
13796;SHT30;40911;51.552;9.874;2022-07-29T04:18:08;17.00;67.21
13796;SHT30;40911;51.552;9.874;2022-07-29T04:20:30;17.05;66.88
13796;SHT30;40911;51.552;9.874;2022-07-29T04:22:51;16.98;67.42
13796;SHT30;40911;51.552;9.874;2022-07-29T04:25:13;17.04;66.86
13796;SHT30;40911;51.552;9.874;2022-07-29T04:27:35;16.93;67.56
13796;SHT30;40911;51.552;9.874;2022-07-29T04:30:16;17.00;67.61
13796;SHT30;40911;51.552;9.874;2022-07-29T04:32:38;16.90;67.52
13796;SHT30;40911;51.552;9.874;2022-07-29T04:35:01;16.93;68.05
13796;SHT30;40911;51.552;9.874;2022-07-29T04:37:23;17.01;68.07
13796;SHT30;40911;51.552;9.874;2022-07-29T04:39:45;17.03;67.53
13796;SHT30;40911;51.552;9.874;2022-07-29T04:42:07;17.00;68.43
13796;SHT30;40911;51.552;9.874;2022-07-29T04:44:28;16.88;69.10
13796;SHT30;40911;51.552;9.874;2022-07-29T04:46:50;17.00;67.88
13796;SHT30;40911;51.552;9.874;2022-07-29T04:49:12;16.95;68.52
13796;SHT30;40911;51.552;9.874;2022-07-29T04:51:35;17.03;67.88
13796;SHT30;40911;51.552;9.874;2022-07-29T04:53:58;17.19;67.98
13796;SHT30;40911;51.552;9.874;2022-07-29T04:56:19;17.18;68.48
13796;SHT30;40911;51.552;9.874;2022-07-29T04:58:41;17.04;67.45
13796;SHT30;40911;51.552;9.874;2022-07-29T05:01:03;17.07;67.94
13796;SHT30;40911;51.552;9.874;2022-07-29T05:03:25;16.90;68.17
13796;SHT30;40911;51.552;9.874;2022-07-29T05:05:46;17.12;67.02
13796;SHT30;40911;51.552;9.874;2022-07-29T05:08:09;17.28;66.43
13796;SHT30;40911;51.552;9.874;2022-07-29T05:10:31;17.32;66.76
13796;SHT30;40911;51.552;9.874;2022-07-29T05:12:54;17.38;66.74
13796;SHT30;40911;51.552;9.874;2022-07-29T05:15:15;17.57;66.46
13796;SHT30;40911;51.552;9.874;2022-07-29T05:17:37;17.67;66.17
13796;SHT30;40911;51.552;9.874;2022-07-29T05:19:59;17.67;66.74
13796;SHT30;40911;51.552;9.874;2022-07-29T05:22:21;17.65;67.99
13796;SHT30;40911;51.552;9.874;2022-07-29T05:24:44;17.69;68.06
13796;SHT30;40911;51.552;9.874;2022-07-29T05:27:06;17.60;68.70
13796;SHT30;40911;51.552;9.874;2022-07-29T05:29:27;17.83;66.97
13796;SHT30;40911;51.552;9.874;2022-07-29T05:31:49;17.96;67.36
13796;SHT30;40911;51.552;9.874;2022-07-29T05:34:13;18.11;66.32
13796;SHT30;40911;51.552;9.874;2022-07-29T05:36:34;18.11;66.37
13796;SHT30;40911;51.552;9.874;2022-07-29T05:38:56;17.98;66.85
13796;SHT30;40911;51.552;9.874;2022-07-29T05:41:19;18.21;65.82
13796;SHT30;40911;51.552;9.874;2022-07-29T05:43:41;18.28;66.20
13796;SHT30;40911;51.552;9.874;2022-07-29T05:46:02;18.65;64.79
13796;SHT30;40911;51.552;9.874;2022-07-29T05:48:24;19.11;64.98
13796;SHT30;40911;51.552;9.874;2022-07-29T05:50:46;19.16;63.68
13796;SHT30;40911;51.552;9.874;2022-07-29T05:53:08;19.24;63.51
13796;SHT30;40911;51.552;9.874;2022-07-29T05:55:29;19.24;64.03
13796;SHT30;40911;51.552;9.874;2022-07-29T05:57:53;19.52;64.34
13796;SHT30;40911;51.552;9.874;2022-07-29T06:00:15;19.58;63.32
13796;SHT30;40911;51.552;9.874;2022-07-29T06:02:37;19.69;63.56
13796;SHT30;40911;51.552;9.874;2022-07-29T06:04:59;19.74;62.87
13796;SHT30;40911;51.552;9.874;2022-07-29T06:07:21;19.77;63.31
13796;SHT30;40911;51.552;9.874;2022-07-29T06:09:42;19.55;63.27
13796;SHT30;40911;51.552;9.874;2022-07-29T06:12:04;19.36;63.52
13796;SHT30;40911;51.552;9.874;2022-07-29T06:14:27;19.18;64.08
13796;SHT30;40911;51.552;9.874;2022-07-29T06:16:49;19.52;63.35
13796;SHT30;40911;51.552;9.874;2022-07-29T06:19:10;19.49;63.45
13796;SHT30;40911;51.552;9.874;2022-07-29T06:21:32;19.34;64.17
13796;SHT30;40911;51.552;9.874;2022-07-29T06:23:53;19.34;63.89
13796;SHT30;40911;51.552;9.874;2022-07-29T06:26:15;19.34;63.63
13796;SHT30;40911;51.552;9.874;2022-07-29T06:28:37;19.41;63.71
13796;SHT30;40911;51.552;9.874;2022-07-29T06:31:00;19.59;63.00
13796;SHT30;40911;51.552;9.874;2022-07-29T06:33:22;19.69;62.81
13796;SHT30;40911;51.552;9.874;2022-07-29T06:35:43;19.84;62.56
13796;SHT30;40911;51.552;9.874;2022-07-29T06:38:07;19.96;61.88
13796;SHT30;40911;51.552;9.874;2022-07-29T06:40:28;19.90;61.16
13796;SHT30;40911;51.552;9.874;2022-07-29T06:43:07;19.94;60.54
13796;SHT30;40911;51.552;9.874;2022-07-29T06:45:29;20.03;60.58
13796;SHT30;40911;51.552;9.874;2022-07-29T06:47:52;20.00;61.47
13796;SHT30;40911;51.552;9.874;2022-07-29T06:50:14;20.04;61.70
13796;SHT30;40911;51.552;9.874;2022-07-29T06:52:35;20.01;64.09
13796;SHT30;40911;51.552;9.874;2022-07-29T06:54:57;20.31;61.52
13796;SHT30;40911;51.552;9.874;2022-07-29T06:57:19;20.20;60.72
13796;SHT30;40911;51.552;9.874;2022-07-29T06:59:41;20.21;60.98
13796;SHT30;40911;51.552;9.874;2022-07-29T07:02:03;20.52;60.55
13796;SHT30;40911;51.552;9.874;2022-07-29T07:04:26;20.56;61.33
13796;SHT30;40911;51.552;9.874;2022-07-29T07:06:47;20.60;60.54
13796;SHT30;40911;51.552;9.874;2022-07-29T07:09:09;20.47;60.38
13796;SHT30;40911;51.552;9.874;2022-07-29T07:11:31;20.55;60.46
13796;SHT30;40911;51.552;9.874;2022-07-29T07:13:52;20.63;60.88
13796;SHT30;40911;51.552;9.874;2022-07-29T07:16:14;20.32;60.06
13796;SHT30;40911;51.552;9.874;2022-07-29T07:18:36;20.87;59.45
13796;SHT30;40911;51.552;9.874;2022-07-29T07:20:59;21.10;59.53
13796;SHT30;40911;51.552;9.874;2022-07-29T07:23:21;21.26;60.59
13796;SHT30;40911;51.552;9.874;2022-07-29T07:25:42;21.73;58.96
13796;SHT30;40911;51.552;9.874;2022-07-29T07:28:04;21.11;59.11
13796;SHT30;40911;51.552;9.874;2022-07-29T07:30:26;21.21;59.28
13796;SHT30;40911;51.552;9.874;2022-07-29T07:32:48;21.72;58.86
13796;SHT30;40911;51.552;9.874;2022-07-29T07:35:10;22.00;58.20
13796;SHT30;40911;51.552;9.874;2022-07-29T07:37:34;21.81;57.31
13796;SHT30;40911;51.552;9.874;2022-07-29T07:39:55;21.82;58.20
13796;SHT30;40911;51.552;9.874;2022-07-29T07:42:18;21.98;57.51
13796;SHT30;40911;51.552;9.874;2022-07-29T07:44:39;21.99;58.52
13796;SHT30;40911;51.552;9.874;2022-07-29T07:47:01;21.55;58.67
13796;SHT30;40911;51.552;9.874;2022-07-29T07:49:23;21.27;61.48
13796;SHT30;40911;51.552;9.874;2022-07-29T07:51:45;21.45;59.14
13796;SHT30;40911;51.552;9.874;2022-07-29T07:54:08;21.58;60.09
13796;SHT30;40911;51.552;9.874;2022-07-29T07:56:29;21.61;59.02
13796;SHT30;40911;51.552;9.874;2022-07-29T07:58:51;21.68;59.24
13796;SHT30;40911;51.552;9.874;2022-07-29T08:01:13;21.85;59.14
13796;SHT30;40911;51.552;9.874;2022-07-29T08:03:35;21.92;58.74
13796;SHT30;40911;51.552;9.874;2022-07-29T08:05:56;21.51;59.48
13796;SHT30;40911;51.552;9.874;2022-07-29T08:08:18;21.75;59.14
13796;SHT30;40911;51.552;9.874;2022-07-29T08:10:41;21.95;58.59
13796;SHT30;40911;51.552;9.874;2022-07-29T08:13:17;21.89;58.22
13796;SHT30;40911;51.552;9.874;2022-07-29T08:15:39;21.99;58.64
13796;SHT30;40911;51.552;9.874;2022-07-29T08:18:03;21.71;58.01
13796;SHT30;40911;51.552;9.874;2022-07-29T08:20:25;21.37;58.26
13796;SHT30;40911;51.552;9.874;2022-07-29T08:22:46;21.15;58.31
13796;SHT30;40911;51.552;9.874;2022-07-29T08:25:08;21.88;58.82
13796;SHT30;40911;51.552;9.874;2022-07-29T08:27:31;22.27;58.75
13796;SHT30;40911;51.552;9.874;2022-07-29T08:29:53;22.16;57.46
13796;SHT30;40911;51.552;9.874;2022-07-29T08:32:16;22.51;57.06
13796;SHT30;40911;51.552;9.874;2022-07-29T08:34:37;22.71;55.77
13796;SHT30;40911;51.552;9.874;2022-07-29T08:36:59;22.50;55.88
13796;SHT30;40911;51.552;9.874;2022-07-29T08:39:21;22.95;56.40
13796;SHT30;40911;51.552;9.874;2022-07-29T08:41:42;23.13;55.69
13796;SHT30;40911;51.552;9.874;2022-07-29T08:44:05;22.91;55.41
13796;SHT30;40911;51.552;9.874;2022-07-29T08:46:29;22.57;56.39
13796;SHT30;40911;51.552;9.874;2022-07-29T08:48:50;22.94;54.94
13796;SHT30;40911;51.552;9.874;2022-07-29T08:51:14;23.05;55.33
13796;SHT30;40911;51.552;9.874;2022-07-29T08:53:36;22.78;55.59
13796;SHT30;40911;51.552;9.874;2022-07-29T08:55:58;22.86;55.86
13796;SHT30;40911;51.552;9.874;2022-07-29T08:58:21;22.43;56.39
13796;SHT30;40911;51.552;9.874;2022-07-29T09:00:46;22.74;55.89
13796;SHT30;40911;51.552;9.874;2022-07-29T09:03:12;22.45;56.22
13796;SHT30;40911;51.552;9.874;2022-07-29T09:05:36;22.48;56.64
13796;SHT30;40911;51.552;9.874;2022-07-29T09:07:58;22.40;56.42
13796;SHT30;40911;51.552;9.874;2022-07-29T09:10:21;22.20;56.49
13796;SHT30;40911;51.552;9.874;2022-07-29T09:12:43;22.31;56.81
13796;SHT30;40911;51.552;9.874;2022-07-29T09:15:05;22.38;55.92
13796;SHT30;40911;51.552;9.874;2022-07-29T09:17:49;22.44;55.89
13796;SHT30;40911;51.552;9.874;2022-07-29T09:20:13;22.34;56.95
13796;SHT30;40911;51.552;9.874;2022-07-29T09:22:36;22.43;57.22
13796;SHT30;40911;51.552;9.874;2022-07-29T09:24:57;22.20;57.76
13796;SHT30;40911;51.552;9.874;2022-07-29T09:27:21;22.14;57.20
13796;SHT30;40911;51.552;9.874;2022-07-29T09:29:43;21.96;59.41
13796;SHT30;40911;51.552;9.874;2022-07-29T09:32:08;21.88;58.16
13796;SHT30;40911;51.552;9.874;2022-07-29T09:34:31;21.76;59.05
13796;SHT30;40911;51.552;9.874;2022-07-29T09:36:54;21.72;57.49
13796;SHT30;40911;51.552;9.874;2022-07-29T09:39:27;21.69;59.19
13796;SHT30;40911;51.552;9.874;2022-07-29T09:41:50;21.68;59.69
13796;SHT30;40911;51.552;9.874;2022-07-29T09:44:13;21.81;59.52
13796;SHT30;40911;51.552;9.874;2022-07-29T09:46:35;21.76;60.41
13796;SHT30;40911;51.552;9.874;2022-07-29T09:49:06;21.81;59.79
13796;SHT30;40911;51.552;9.874;2022-07-29T09:51:30;21.79;59.79
13796;SHT30;40911;51.552;9.874;2022-07-29T09:53:52;21.71;59.26
13796;SHT30;40911;51.552;9.874;2022-07-29T09:56:14;21.66;59.58
13796;SHT30;40911;51.552;9.874;2022-07-29T09:58:36;21.59;62.08
13796;SHT30;40911;51.552;9.874;2022-07-29T10:00:57;21.47;62.96
13796;SHT30;40911;51.552;9.874;2022-07-29T10:03:19;21.48;62.25
13796;SHT30;40911;51.552;9.874;2022-07-29T10:05:42;21.54;61.39
13796;SHT30;40911;51.552;9.874;2022-07-29T10:08:05;21.54;61.32
13796;SHT30;40911;51.552;9.874;2022-07-29T10:10:29;21.50;60.60
13796;SHT30;40911;51.552;9.874;2022-07-29T10:12:53;21.59;59.70
13796;SHT30;40911;51.552;9.874;2022-07-29T10:15:15;21.71;60.11
13796;SHT30;40911;51.552;9.874;2022-07-29T10:17:37;21.75;60.29
13796;SHT30;40911;51.552;9.874;2022-07-29T10:19:59;21.95;60.64
13796;SHT30;40911;51.552;9.874;2022-07-29T10:22:22;22.13;60.61
13796;SHT30;40911;51.552;9.874;2022-07-29T10:24:45;22.44;60.59
13796;SHT30;40911;51.552;9.874;2022-07-29T10:27:08;22.54;59.89
13796;SHT30;40911;51.552;9.874;2022-07-29T10:29:29;22.81;60.42
13796;SHT30;40911;51.552;9.874;2022-07-29T10:32:02;23.07;58.08
13796;SHT30;40911;51.552;9.874;2022-07-29T10:34:36;23.61;57.26
13796;SHT30;40911;51.552;9.874;2022-07-29T10:37:12;23.87;55.97
13796;SHT30;40911;51.552;9.874;2022-07-29T10:39:48;23.99;55.64
13796;SHT30;40911;51.552;9.874;2022-07-29T10:42:17;23.75;55.95
13796;SHT30;40911;51.552;9.874;2022-07-29T10:44:40;24.35;56.12
13796;SHT30;40911;51.552;9.874;2022-07-29T10:47:02;24.53;54.39
13796;SHT30;40911;51.552;9.874;2022-07-29T10:49:25;25.18;54.78
13796;SHT30;40911;51.552;9.874;2022-07-29T10:51:59;25.59;53.39
13796;SHT30;40911;51.552;9.874;2022-07-29T10:54:40;25.98;52.41
13796;SHT30;40911;51.552;9.874;2022-07-29T10:57:11;26.62;51.68
13796;SHT30;40911;51.552;9.874;2022-07-29T10:59:33;26.26;51.69
13796;SHT30;40911;51.552;9.874;2022-07-29T11:01:55;26.14;52.58
13796;SHT30;40911;51.552;9.874;2022-07-29T11:07:17;26.34;50.29
13796;SHT30;40911;51.552;9.874;2022-07-29T11:09:39;26.34;50.72
13796;SHT30;40911;51.552;9.874;2022-07-29T11:12:01;26.09;50.93
13796;SHT30;40911;51.552;9.874;2022-07-29T11:14:57;25.70;50.88
13796;SHT30;40911;51.552;9.874;2022-07-29T11:17:20;26.07;51.62
13796;SHT30;40911;51.552;9.874;2022-07-29T11:19:42;26.70;51.82
13796;SHT30;40911;51.552;9.874;2022-07-29T11:22:08;26.96;51.45
13796;SHT30;40911;51.552;9.874;2022-07-29T11:24:30;26.87;51.42
13796;SHT30;40911;51.552;9.874;2022-07-29T11:27:12;28.14;49.67
13796;SHT30;40911;51.552;9.874;2022-07-29T11:29:35;28.25;49.80
13796;SHT30;40911;51.552;9.874;2022-07-29T11:32:10;28.34;49.30
13796;SHT30;40911;51.552;9.874;2022-07-29T11:34:32;28.40;48.31
13796;SHT30;40911;51.552;9.874;2022-07-29T11:37:21;28.82;48.13
13796;SHT30;40911;51.552;9.874;2022-07-29T11:39:44;28.31;48.02
13796;SHT30;40911;51.552;9.874;2022-07-29T11:42:38;27.62;48.30
13796;SHT30;40911;51.552;9.874;2022-07-29T11:45:03;27.28;49.02
13796;SHT30;40911;51.552;9.874;2022-07-29T11:47:28;27.45;48.95
13796;SHT30;40911;51.552;9.874;2022-07-29T11:49:50;27.54;48.45
13796;SHT30;40911;51.552;9.874;2022-07-29T11:52:12;27.61;49.60
13796;SHT30;40911;51.552;9.874;2022-07-29T11:54:35;27.97;47.83
13796;SHT30;40911;51.552;9.874;2022-07-29T11:56:58;28.49;47.37
13796;SHT30;40911;51.552;9.874;2022-07-29T11:59:21;29.26;46.87
13796;SHT30;40911;51.552;9.874;2022-07-29T12:01:52;29.55;46.10
13796;SHT30;40911;51.552;9.874;2022-07-29T12:04:15;30.13;46.17
13796;SHT30;40911;51.552;9.874;2022-07-29T12:06:37;29.96;45.07
13796;SHT30;40911;51.552;9.874;2022-07-29T12:08:59;30.71;45.49
13796;SHT30;40911;51.552;9.874;2022-07-29T12:11:20;31.21;44.83
13796;SHT30;40911;51.552;9.874;2022-07-29T12:13:42;29.98;45.20
13796;SHT30;40911;51.552;9.874;2022-07-29T12:16:04;29.59;46.69
13796;SHT30;40911;51.552;9.874;2022-07-29T12:18:26;29.00;46.79
13796;SHT30;40911;51.552;9.874;2022-07-29T12:20:56;29.37;46.58
13796;SHT30;40911;51.552;9.874;2022-07-29T12:23:18;29.48;45.80
13796;SHT30;40911;51.552;9.874;2022-07-29T12:25:41;29.57;46.32
13796;SHT30;40911;51.552;9.874;2022-07-29T12:28:05;29.74;45.25
13796;SHT30;40911;51.552;9.874;2022-07-29T12:30:42;29.51;47.43
13796;SHT30;40911;51.552;9.874;2022-07-29T12:33:11;30.15;45.38
13796;SHT30;40911;51.552;9.874;2022-07-29T12:35:33;30.70;45.00
13796;SHT30;40911;51.552;9.874;2022-07-29T12:37:56;30.44;45.12
13796;SHT30;40911;51.552;9.874;2022-07-29T12:40:20;29.71;45.40
13796;SHT30;40911;51.552;9.874;2022-07-29T12:43:10;30.01;45.43
13796;SHT30;40911;51.552;9.874;2022-07-29T12:45:33;29.95;46.67
13796;SHT30;40911;51.552;9.874;2022-07-29T12:47:54;29.72;45.78
13796;SHT30;40911;51.552;9.874;2022-07-29T12:50:16;30.40;44.96
13796;SHT30;40911;51.552;9.874;2022-07-29T12:52:38;30.94;44.31
13796;SHT30;40911;51.552;9.874;2022-07-29T12:55:01;30.10;46.28
13796;SHT30;40911;51.552;9.874;2022-07-29T12:57:23;30.16;45.55
13796;SHT30;40911;51.552;9.874;2022-07-29T13:00:03;29.77;45.46
13796;SHT30;40911;51.552;9.874;2022-07-29T13:02:25;30.34;45.42
13796;SHT30;40911;51.552;9.874;2022-07-29T13:04:55;30.84;45.47
13796;SHT30;40911;51.552;9.874;2022-07-29T13:07:24;30.70;45.16
13796;SHT30;40911;51.552;9.874;2022-07-29T13:09:45;30.88;44.56
13796;SHT30;40911;51.552;9.874;2022-07-29T13:12:10;31.37;43.99
13796;SHT30;40911;51.552;9.874;2022-07-29T13:14:34;31.51;43.71
13796;SHT30;40911;51.552;9.874;2022-07-29T13:17:04;31.08;43.52
13796;SHT30;40911;51.552;9.874;2022-07-29T13:19:33;29.88;45.06
13796;SHT30;40911;51.552;9.874;2022-07-29T13:21:55;30.92;44.55
13796;SHT30;40911;51.552;9.874;2022-07-29T13:24:16;31.69;43.36
13796;SHT30;40911;51.552;9.874;2022-07-29T13:26:39;31.39;43.54
13796;SHT30;40911;51.552;9.874;2022-07-29T13:29:03;31.07;43.19
13796;SHT30;40911;51.552;9.874;2022-07-29T13:31:25;30.57;44.16
13796;SHT30;40911;51.552;9.874;2022-07-29T13:33:47;31.39;44.02
13796;SHT30;40911;51.552;9.874;2022-07-29T13:36:09;31.98;42.41
13796;SHT30;40911;51.552;9.874;2022-07-29T13:38:30;31.50;43.01
13796;SHT30;40911;51.552;9.874;2022-07-29T13:40:52;31.70;42.69
13796;SHT30;40911;51.552;9.874;2022-07-29T13:43:14;31.76;43.11
13796;SHT30;40911;51.552;9.874;2022-07-29T13:45:37;31.01;42.13
13796;SHT30;40911;51.552;9.874;2022-07-29T13:47:59;30.64;43.67
13796;SHT30;40911;51.552;9.874;2022-07-29T13:50:21;30.42;44.93
13796;SHT30;40911;51.552;9.874;2022-07-29T13:52:42;30.27;44.50
13796;SHT30;40911;51.552;9.874;2022-07-29T13:55:05;30.30;44.87
13796;SHT30;40911;51.552;9.874;2022-07-29T13:57:27;30.98;44.81
13796;SHT30;40911;51.552;9.874;2022-07-29T13:59:49;30.78;44.34
13796;SHT30;40911;51.552;9.874;2022-07-29T14:02:13;31.40;43.43
13796;SHT30;40911;51.552;9.874;2022-07-29T14:04:34;31.02;43.65
13796;SHT30;40911;51.552;9.874;2022-07-29T14:06:56;31.32;44.25
13796;SHT30;40911;51.552;9.874;2022-07-29T14:09:18;31.50;43.56
13796;SHT30;40911;51.552;9.874;2022-07-29T14:11:40;31.21;43.71
13796;SHT30;40911;51.552;9.874;2022-07-29T14:14:02;31.45;42.16
13796;SHT30;40911;51.552;9.874;2022-07-29T14:16:24;31.39;42.30
13796;SHT30;40911;51.552;9.874;2022-07-29T14:18:47;32.18;42.49
13796;SHT30;40911;51.552;9.874;2022-07-29T14:21:08;32.12;43.80
13796;SHT30;40911;51.552;9.874;2022-07-29T14:23:30;31.54;41.80
13796;SHT30;40911;51.552;9.874;2022-07-29T14:25:52;32.08;42.10
13796;SHT30;40911;51.552;9.874;2022-07-29T14:28:13;31.14;43.19
13796;SHT30;40911;51.552;9.874;2022-07-29T14:30:35;31.09;42.90
13796;SHT30;40911;51.552;9.874;2022-07-29T14:32:57;31.95;43.35
13796;SHT30;40911;51.552;9.874;2022-07-29T14:35:20;31.73;41.94
13796;SHT30;40911;51.552;9.874;2022-07-29T14:37:42;32.12;42.68
13796;SHT30;40911;51.552;9.874;2022-07-29T14:40:04;32.35;42.53
13796;SHT30;40911;51.552;9.874;2022-07-29T14:42:26;32.42;41.27
13796;SHT30;40911;51.552;9.874;2022-07-29T14:44:48;32.18;42.19
13796;SHT30;40911;51.552;9.874;2022-07-29T14:47:10;32.49;41.51
13796;SHT30;40911;51.552;9.874;2022-07-29T14:49:31;32.03;41.16
13796;SHT30;40911;51.552;9.874;2022-07-29T14:51:54;31.42;42.10
13796;SHT30;40911;51.552;9.874;2022-07-29T14:54:16;29.71;43.21
13796;SHT30;40911;51.552;9.874;2022-07-29T14:56:38;29.61;43.73
13796;SHT30;40911;51.552;9.874;2022-07-29T14:59:00;29.43;44.47
13796;SHT30;40911;51.552;9.874;2022-07-29T15:01:21;29.27;45.15
13796;SHT30;40911;51.552;9.874;2022-07-29T15:03:43;29.31;45.04
13796;SHT30;40911;51.552;9.874;2022-07-29T15:06:05;29.22;44.73
13796;SHT30;40911;51.552;9.874;2022-07-29T15:08:28;29.26;45.86
13796;SHT30;40911;51.552;9.874;2022-07-29T15:10:51;29.33;44.53
13796;SHT30;40911;51.552;9.874;2022-07-29T15:13:13;29.46;45.65